createdAt,value
2022-09-12T00:00:00.412Z,100
2022-09-12T00:05:02.840Z,100
2022-09-12T00:10:05.481Z,100
2022-09-12T00:15:08.108Z,100
2022-09-12T00:20:10.760Z,100
2022-09-12T00:25:13.456Z,100
2022-09-12T00:30:16.088Z,100
2022-09-12T00:35:18.753Z,100
2022-09-12T00:40:21.266Z,100
2022-09-12T00:45:24.062Z,100
2022-09-12T00:50:26.662Z,100
2022-09-12T00:55:29.217Z,100
2022-09-12T01:00:31.841Z,100
2022-09-12T01:05:34.449Z,100
2022-09-12T01:10:37.235Z,100
2022-09-12T01:15:39.912Z,100
2022-09-12T01:20:42.537Z,100
2022-09-12T01:25:45.244Z,100
2022-09-12T01:30:48.099Z,100
2022-09-12T01:35:50.718Z,100
2022-09-12T01:40:53.629Z,100
2022-09-12T01:45:56.218Z,100
2022-09-12T01:50:58.873Z,100
2022-09-12T01:56:01.474Z,100
2022-09-12T02:01:04.166Z,100
2022-09-12T02:11:09.293Z,100
2022-09-12T02:16:11.977Z,100
2022-09-12T02:21:14.481Z,100
2022-09-12T02:26:17.299Z,100
2022-09-12T02:31:19.862Z,100
2022-09-12T02:36:22.548Z,100
2022-09-12T02:41:25.208Z,100
2022-09-12T02:46:27.605Z,100
2022-09-12T02:51:30.390Z,100
2022-09-12T02:56:33.056Z,100
2022-09-12T03:01:35.690Z,100
2022-09-12T03:06:38.367Z,100
2022-09-12T03:11:41.002Z,100
2022-09-12T03:16:43.659Z,100
2022-09-12T03:21:46.225Z,100
2022-09-12T03:26:49.010Z,100
2022-09-12T03:31:51.715Z,100
2022-09-12T03:36:54.487Z,100
2022-09-12T03:41:57.087Z,100
2022-09-12T03:47:02.654Z,100
2022-09-12T03:52:05.148Z,100
2022-09-12T03:57:08.243Z,100
2022-09-12T04:07:13.258Z,100
2022-09-12T04:12:15.758Z,100
2022-09-12T04:17:18.437Z,100
2022-09-12T04:27:23.615Z,100
2022-09-12T04:32:26.259Z,100
2022-09-12T04:37:31.916Z,100
2022-09-12T04:42:37.581Z,100
2022-09-12T04:47:40.387Z,100
2022-09-12T04:57:45.803Z,100
2022-09-12T05:07:53.732Z,100
2022-09-12T05:12:56.628Z,100
2022-09-12T05:17:59.509Z,100
2022-09-12T05:28:04.865Z,100
2022-09-12T05:33:07.625Z,100
2022-09-12T05:38:10.459Z,100
2022-09-12T05:43:13.255Z,100
2022-09-12T05:48:16.069Z,100
2022-09-12T05:53:24.929Z,100
2022-09-12T05:58:27.801Z,100
2022-09-12T06:03:31.032Z,100
2022-09-12T06:08:33.859Z,100
2022-09-12T06:13:36.671Z,100
2022-09-12T06:18:42.386Z,100
2022-09-12T06:23:45.133Z,100
2022-09-12T06:28:48.125Z,100
2022-09-12T06:33:50.637Z,100
2022-09-12T06:38:53.420Z,100
2022-09-12T06:54:01.772Z,100
2022-09-12T06:59:04.464Z,100
2022-09-12T07:09:14.864Z,100
2022-09-12T07:14:17.659Z,100
2022-09-12T07:19:20.511Z,100
2022-09-12T07:24:23.528Z,100
2022-09-12T07:29:36.311Z,100
2022-09-12T07:34:28.837Z,100
2022-09-12T07:39:31.674Z,100
2022-09-12T07:49:39.939Z,100
2022-09-12T07:54:42.902Z,100
2022-09-12T08:05:16.398Z,100
2022-09-12T08:10:19.248Z,100
2022-09-12T08:15:21.642Z,100
2022-09-12T08:25:26.909Z,100
2022-09-12T08:35:32.060Z,100
2022-09-12T08:40:34.920Z,100
2022-09-12T08:45:37.692Z,100
2022-09-12T08:50:58.492Z,100
2022-09-12T08:56:01.885Z,100
2022-09-12T09:01:04.274Z,100
2022-09-12T09:06:06.926Z,100
2022-09-12T09:11:09.603Z,100
2022-09-12T09:16:12.227Z,100
2022-09-12T09:21:14.952Z,100
2022-09-12T09:26:17.973Z,100
2022-09-12T09:31:21.036Z,100
2022-09-12T09:41:28.916Z,100
2022-09-12T09:46:31.382Z,100
2022-09-12T09:51:34.093Z,100
2022-09-12T09:56:37.031Z,100
2022-09-12T10:01:39.798Z,100
2022-09-12T10:06:44.876Z,100
2022-09-12T10:11:47.562Z,100
2022-09-12T10:16:50.140Z,100
2022-09-12T10:21:52.626Z,100
2022-09-12T10:26:56.890Z,100
2022-09-12T10:31:58.229Z,100
2022-09-12T10:37:00.910Z,100
2022-09-12T10:42:03.602Z,100
2022-09-12T10:52:11.894Z,93.74609
2022-09-12T11:02:17.564Z,74.14844
2022-09-12T11:07:20.114Z,89.3291
2022-09-12T11:12:22.646Z,91.95313
2022-09-12T11:22:31.677Z,87.87988
2022-09-12T11:37:36.922Z,80.35254
2022-09-12T11:42:39.995Z,68.46973
2022-09-12T11:47:43.620Z,67.36719
2022-09-12T11:53:35.015Z,68.80371
2022-09-12T11:58:43.832Z,65.07129
2022-09-12T12:03:46.674Z,63.27734
2022-09-12T12:08:49.225Z,60.89648
2022-09-12T12:13:51.634Z,60.06543
2022-09-12T12:18:54.517Z,57.23535
2022-09-12T12:23:57.212Z,63.33398
2022-09-12T12:28:59.693Z,70.06152
2022-09-12T12:34:02.292Z,66.06836
2022-09-12T12:39:04.926Z,68.23145
2022-09-12T12:44:07.646Z,71.81738
2022-09-12T12:49:10.166Z,77.94922
2022-09-12T12:54:13.174Z,77.46973
2022-09-12T12:59:15.767Z,75.00977
2022-09-12T13:04:18.650Z,73.21484
2022-09-12T13:09:21.428Z,80.18066
2022-09-12T13:14:24.065Z,81.62305
2022-09-12T13:19:26.807Z,80.29102
2022-09-12T13:24:29.787Z,76.46191
2022-09-12T13:29:32.392Z,74.50195
2022-09-12T13:34:35.253Z,74.71875
2022-09-12T13:39:37.989Z,73.70801
2022-09-12T13:44:40.531Z,73.70801
2022-09-12T13:49:43.234Z,70.73047
2022-09-12T13:54:45.901Z,79.09766
2022-09-12T13:59:48.473Z,85.24023
2022-09-12T14:04:51.024Z,79.73535
2022-09-12T14:14:56.433Z,76.91602
2022-09-12T14:19:59.036Z,76.73047
2022-09-12T14:25:01.585Z,83.74414
2022-09-12T14:30:04.339Z,78.47852
2022-09-12T14:35:06.824Z,80.9873
2022-09-12T14:40:09.496Z,78.56348
2022-09-12T14:45:12.108Z,82.36133
2022-09-12T14:50:14.913Z,84.56152
2022-09-12T14:55:17.443Z,86.67578
2022-09-12T15:00:19.998Z,90.14844
2022-09-12T15:05:22.602Z,90.375
2022-09-12T15:10:25.244Z,92.38672
2022-09-12T15:15:27.854Z,96.48926
2022-09-12T15:20:30.370Z,97.5625
2022-09-12T15:25:33.296Z,100
2022-09-12T15:30:38.717Z,95.89941
2022-09-12T15:35:41.442Z,96.70508
2022-09-12T15:40:44.165Z,97.57129
2022-09-12T15:45:46.849Z,100
2022-09-12T15:50:49.547Z,99.32227
2022-09-12T15:55:52.249Z,100
2022-09-12T16:00:54.604Z,100
2022-09-12T16:05:57.319Z,100
2022-09-12T16:11:00.075Z,100
2022-09-12T16:16:02.834Z,100
2022-09-12T16:21:05.543Z,100
2022-09-12T16:26:08.246Z,100
2022-09-12T16:31:10.730Z,100
2022-09-12T16:36:15.981Z,100
2022-09-12T16:46:21.332Z,100
2022-09-12T16:51:24.071Z,100
2022-09-12T17:02:25.280Z,100
2022-09-12T17:07:27.619Z,100
2022-09-12T17:12:30.345Z,100
2022-09-12T17:17:32.786Z,100
2022-09-12T17:22:35.340Z,100
2022-09-12T17:27:38.145Z,100
2022-09-12T17:32:40.854Z,100
2022-09-12T17:37:43.452Z,100
2022-09-12T17:42:46.093Z,100
2022-09-12T17:47:48.778Z,100
2022-09-12T17:52:51.317Z,100
2022-09-12T17:57:53.971Z,100
2022-09-12T18:02:56.952Z,100
2022-09-12T18:07:59.506Z,100
2022-09-12T18:13:02.110Z,100
2022-09-12T18:18:04.887Z,100
2022-09-12T18:23:07.437Z,100
2022-09-12T18:28:10.197Z,100
2022-09-12T18:33:12.939Z,100
2022-09-12T18:38:15.572Z,100
2022-09-12T18:43:18.290Z,100
2022-09-12T18:48:21.005Z,100
2022-09-12T18:53:23.680Z,100
2022-09-12T18:58:26.393Z,100
2022-09-12T19:03:29.273Z,100
2022-09-12T19:08:31.685Z,100
2022-09-12T19:13:34.285Z,100
2022-09-12T19:18:37.090Z,100
2022-09-12T19:23:39.970Z,100
2022-09-12T19:33:45.431Z,100
2022-09-12T19:38:47.889Z,100
2022-09-12T19:43:50.469Z,100
2022-09-12T19:48:53.135Z,100
2022-09-12T19:53:55.678Z,100
2022-09-12T19:58:58.552Z,100
2022-09-12T20:04:01.358Z,100
2022-09-12T20:09:06.565Z,100
2022-09-12T20:14:09.297Z,100
2022-09-12T20:19:14.660Z,100
2022-09-12T20:24:17.262Z,100
2022-09-12T20:29:19.924Z,100
2022-09-12T20:34:22.712Z,100
2022-09-12T20:39:25.145Z,100
2022-09-12T20:44:27.702Z,100
2022-09-12T20:54:32.968Z,100
2022-09-12T21:04:38.406Z,100
2022-09-12T21:09:40.839Z,100
2022-09-12T21:14:43.555Z,100
2022-09-12T21:19:49.041Z,100
2022-09-12T21:24:52.230Z,100
2022-09-12T21:34:57.279Z,100
2022-09-12T21:39:59.838Z,100
2022-09-12T21:45:02.311Z,100
2022-09-12T21:56:03.280Z,100
2022-09-12T22:01:14.597Z,100
2022-09-12T22:06:20.673Z,100
2022-09-12T22:16:22.811Z,100
2022-09-12T22:21:25.329Z,100
2022-09-12T22:31:30.836Z,100
2022-09-12T22:36:35.912Z,100
2022-09-12T22:41:35.996Z,100
2022-09-12T22:46:38.657Z,100
2022-09-12T22:56:43.928Z,100
2022-09-12T23:01:46.552Z,100
2022-09-12T23:06:49.225Z,100
2022-09-12T23:11:52.028Z,100
2022-09-12T23:16:54.777Z,100
2022-09-12T23:26:59.993Z,100
2022-09-12T23:37:08.188Z,100
2022-09-12T23:47:13.356Z,100
2022-09-12T23:52:15.852Z,100
2022-09-12T23:57:18.440Z,100
